Time,TemperatureF,DewpointF,PressureIn,WindDirection,WindDirectionDegrees,WindSpeedMPH,WindSpeedGustMPH,Humidity,HourlyPrecipIn,Conditions,Clouds,dailyrainin,SoftwareType,DateUTC
2013-01-09 00:00:00,70.8,69.4,30.24,ESE,112,2.2,3.4,96,0.00,,,0.00,JAVA,2013-01-09 05:00:00,
2013-01-09 00:01:00,70.9,69.4,30.24,East,90,2.1,3.4,97,0.00,,,0.00,JAVA,2013-01-09 05:01:00,
2013-01-09 00:04:00,70.9,69.5,30.24,ESE,112,2.2,3.4,97,0.00,,,0.00,JAVA,2013-01-09 05:04:00,
2013-01-09 00:09:00,70.9,69.6,30.24,East,90,1.5,3.4,97,0.00,,,0.00,JAVA,2013-01-09 05:09:00,
2013-01-09 00:14:00,70.8,69.7,30.24,SSE,157,0.9,1.6,97,0.00,,,0.00,JAVA,2013-01-09 05:14:00,
2013-01-09 00:19:00,70.7,69.7,30.24,ESE,112,1.2,2.0,97,0.00,,,0.00,JAVA,2013-01-09 05:19:00,
2013-01-09 00:24:00,70.6,69.8,30.24,ESE,112,0.9,1.5,97,0.00,,,0.00,JAVA,2013-01-09 05:24:00,
2013-01-09 00:30:00,70.6,69.8,30.24,East,90,1.1,2.4,97,0.00,,,0.00,JAVA,2013-01-09 05:30:00,
2013-01-09 00:35:00,70.5,69.8,30.25,SE,135,0.7,1.7,97,0.00,,,0.00,JAVA,2013-01-09 05:35:00,
2013-01-09 00:40:00,70.5,69.8,30.24,East,90,0.5,1.5,97,0.00,,,0.00,JAVA,2013-01-09 05:40:00,
2013-01-09 00:45:00,70.4,69.7,30.25,ESE,112,0.4,1.0,97,0.00,,,0.00,JAVA,2013-01-09 05:45:00,
2013-01-09 00:50:00,70.3,69.7,30.25,East,90,0.1,0.4,97,0.00,,,0.00,JAVA,2013-01-09 05:50:00,
2013-01-09 00:55:00,70.1,69.6,30.24,SE,135,0.8,1.4,97,0.00,,,0.00,JAVA,2013-01-09 05:55:00,
2013-01-09 01:00:00,70.1,69.5,30.24,SE,135,0.8,2.1,97,0.00,,,0.00,JAVA,2013-01-09 06:00:00,
2013-01-09 01:05:00,70.3,69.5,30.24,East,90,1.3,2.5,97,0.00,,,0.00,JAVA,2013-01-09 06:05:00,
2013-01-09 01:10:00,70.3,69.4,30.24,ESE,112,1.3,2.0,97,0.00,,,0.00,JAVA,2013-01-09 06:10:00,
2013-01-09 01:15:00,70.4,69.4,30.24,SE,135,1.7,2.7,97,0.00,,,0.00,JAVA,2013-01-09 06:15:00,
2013-01-09 01:20:00,70.4,69.4,30.24,SE,135,1.8,2.7,97,0.00,,,0.00,JAVA,2013-01-09 06:20:00,
2013-01-09 01:26:00,70.4,69.3,30.24,East,90,1.6,2.5,97,0.00,,,0.00,JAVA,2013-01-09 06:26:00,
2013-01-09 01:31:00,70.4,69.3,30.24,SE,135,1.3,2.0,97,0.00,,,0.00,JAVA,2013-01-09 06:31:00,
2013-01-09 01:36:00,70.4,69.4,30.24,East,90,1.4,2.0,97,0.00,,,0.00,JAVA,2013-01-09 06:36:00,
2013-01-09 01:41:00,70.4,69.4,30.24,ESE,112,1.5,2.2,97,0.00,,,0.00,JAVA,2013-01-09 06:41:00,
2013-01-09 01:46:00,70.4,69.4,30.24,East,90,1.2,2.3,97,0.00,,,0.00,JAVA,2013-01-09 06:46:00,
2013-01-09 01:51:00,70.4,69.5,30.24,SE,135,1.6,2.7,97,0.00,,,0.00,JAVA,2013-01-09 06:51:00,
2013-01-09 01:56:00,70.5,69.5,30.23,East,90,2.1,3.6,97,0.00,,,0.00,JAVA,2013-01-09 06:56:00,
2013-01-09 02:01:00,70.6,69.5,30.24,ESE,112,2.0,2.6,97,0.00,,,0.00,JAVA,2013-01-09 07:01:00,
2013-01-09 02:06:00,70.7,69.6,30.24,ESE,112,2.7,5.0,97,0.00,,,0.00,JAVA,2013-01-09 07:06:00,
2013-01-09 02:12:00,70.8,69.6,30.24,SE,135,2.6,3.2,97,0.00,,,0.00,JAVA,2013-01-09 07:12:00,
2013-01-09 02:17:00,70.7,69.7,30.24,ESE,112,2.2,3.5,97,0.00,,,0.00,JAVA,2013-01-09 07:17:00,
2013-01-09 02:22:00,70.8,69.8,30.24,SE,135,1.9,3.5,97,0.00,,,0.00,JAVA,2013-01-09 07:22:00,
2013-01-09 02:27:00,70.8,69.8,30.24,SE,135,2.0,3.0,97,0.00,,,0.00,JAVA,2013-01-09 07:27:00,
2013-01-09 02:32:00,70.9,69.9,30.24,SE,135,2.4,4.2,97,0.00,,,0.00,JAVA,2013-01-09 07:32:00,
2013-01-09 02:37:00,70.9,70.0,30.24,East,90,2.4,3.4,97,0.00,,,0.00,JAVA,2013-01-09 07:37:00,
2013-01-09 02:42:00,70.9,70.0,30.24,SE,135,3.1,4.4,97,0.00,,,0.00,JAVA,2013-01-09 07:42:00,
2013-01-09 02:47:00,70.9,70.0,30.24,ESE,112,2.3,3.5,97,0.00,,,0.00,JAVA,2013-01-09 07:47:00,
2013-01-09 02:52:00,71.0,70.1,30.24,East,90,3.1,4.9,97,0.00,,,0.00,JAVA,2013-01-09 07:52:00,
2013-01-09 02:57:00,71.2,70.1,30.24,East,90,3.1,4.1,97,0.00,,,0.00,JAVA,2013-01-09 07:57:00,
2013-01-09 03:03:00,71.2,70.1,30.25,ESE,112,2.5,4.0,97,0.00,,,0.00,JAVA,2013-01-09 08:03:00,
2013-01-09 03:08:00,71.2,70.1,30.24,SE,135,2.2,4.0,97,0.00,,,0.00,JAVA,2013-01-09 08:08:00,
2013-01-09 03:13:00,71.2,70.1,30.24,SE,135,3.0,4.8,97,0.00,,,0.00,JAVA,2013-01-09 08:13:00,
2013-01-09 03:18:00,71.2,70.1,30.25,East,90,3.3,4.8,96,0.00,,,0.00,JAVA,2013-01-09 08:18:00,
2013-01-09 03:23:00,71.2,70.1,30.25,ESE,112,2.6,5.0,96,0.00,,,0.00,JAVA,2013-01-09 08:23:00,
2013-01-09 03:28:00,71.2,70.1,30.24,SE,135,2.6,4.8,96,0.00,,,0.00,JAVA,2013-01-09 08:28:00,
2013-01-09 03:33:00,71.2,70.1,30.24,ESE,112,2.7,3.4,96,0.00,,,0.00,JAVA,2013-01-09 08:33:00,
2013-01-09 03:38:00,71.3,70.1,30.24,East,90,2.9,3.9,96,0.00,,,0.00,JAVA,2013-01-09 08:38:00,
2013-01-09 03:43:00,71.3,70.1,30.23,SE,135,2.8,5.0,96,0.00,,,0.00,JAVA,2013-01-09 08:43:00,
2013-01-09 03:48:00,71.4,70.1,30.24,SE,135,2.6,4.3,96,0.00,,,0.00,JAVA,2013-01-09 08:48:00,
2013-01-09 03:54:00,71.4,70.1,30.24,SE,135,1.9,3.0,96,0.00,,,0.00,JAVA,2013-01-09 08:54:00,
2013-01-09 03:59:00,71.4,70.2,30.24,SSE,157,3.9,5.5,96,0.00,,,0.00,JAVA,2013-01-09 08:59:00,
2013-01-09 04:04:00,71.5,70.2,30.24,SE,135,2.7,3.7,96,0.00,,,0.00,JAVA,2013-01-09 09:04:00,
2013-01-09 04:09:00,71.5,70.2,30.24,SSE,157,2.5,4.3,96,0.00,,,0.00,JAVA,2013-01-09 09:09:00,
2013-01-09 04:14:00,71.5,70.3,30.24,SE,135,2.7,4.4,96,0.00,,,0.00,JAVA,2013-01-09 09:14:00,
2013-01-09 04:19:00,71.6,70.3,30.24,East,90,2.3,3.3,96,0.00,,,0.00,JAVA,2013-01-09 09:19:00,
2013-01-09 04:24:00,71.7,70.3,30.25,SE,135,4.0,5.5,96,0.00,,,0.00,JAVA,2013-01-09 09:24:00,
2013-01-09 04:30:00,71.4,70.3,30.24,East,90,4.0,7.5,96,0.00,,,0.00,JAVA,2013-01-09 09:30:00,
2013-01-09 04:35:00,71.2,70.3,30.25,ESE,112,3.9,6.8,96,0.00,,,0.00,JAVA,2013-01-09 09:35:00,
2013-01-09 04:40:00,70.9,70.3,30.25,East,90,2.2,4.3,95,0.00,,,0.00,JAVA,2013-01-09 09:40:00,
2013-01-09 04:46:00,70.8,70.1,30.25,SE,135,2.7,5.3,95,0.00,,,0.00,JAVA,2013-01-09 09:46:00,
2013-01-09 04:51:00,70.7,70.0,30.25,SE,135,3.0,4.2,95,0.00,,,0.00,JAVA,2013-01-09 09:51:00,
2013-01-09 04:56:00,70.7,69.9,30.25,ESE,112,2.4,4.1,95,0.00,,,0.00,JAVA,2013-01-09 09:56:00,
2013-01-09 05:01:00,70.6,69.7,30.25,NW,315,2.2,4.8,95,0.00,,,0.00,JAVA,2013-01-09 10:01:00,
2013-01-09 05:06:00,70.5,69.6,30.24,South,180,1.3,2.7,95,0.00,,,0.00,JAVA,2013-01-09 10:06:00,
2013-01-09 05:11:00,70.1,69.4,30.25,ESE,112,1.4,2.8,95,0.00,,,0.00,JAVA,2013-01-09 10:11:00,
2013-01-09 05:16:00,70.0,69.2,30.25,SE,135,1.0,2.4,95,0.00,,,0.00,JAVA,2013-01-09 10:16:00,
2013-01-09 05:21:00,69.8,69.0,30.25,SSW,202,1.3,3.5,95,0.00,,,0.00,JAVA,2013-01-09 10:21:00,
2013-01-09 05:26:00,69.8,68.8,30.25,South,180,0.2,0.9,94,0.00,,,0.00,JAVA,2013-01-09 10:26:00,
2013-01-09 05:32:00,69.7,68.7,30.24,East,90,0.1,0.7,94,0.00,,,0.00,JAVA,2013-01-09 10:32:00,
2013-01-09 05:37:00,69.7,68.6,30.24,SE,135,0.1,0.5,94,0.00,,,0.00,JAVA,2013-01-09 10:37:00,
2013-01-09 05:42:00,69.7,68.4,30.24,SSE,157,0.4,0.8,94,0.00,,,0.00,JAVA,2013-01-09 10:42:00,
2013-01-09 05:47:00,69.7,68.3,30.24,South,180,0.0,0.6,94,0.00,,,0.00,JAVA,2013-01-09 10:47:00,
2013-01-09 05:52:00,69.7,68.2,30.25,ENE,67,0.0,0.0,94,0.00,,,0.00,JAVA,2013-01-09 10:52:00,
2013-01-09 05:57:00,69.7,68.1,30.25,ENE,67,0.0,0.0,94,0.00,,,0.00,JAVA,2013-01-09 10:57:00,
2013-01-09 06:02:00,69.6,68.0,30.25,ENE,67,0.2,1.1,94,0.00,,,0.00,JAVA,2013-01-09 11:02:00,
2013-01-09 06:07:00,69.7,68.0,30.26,ENE,67,0.2,0.6,94,0.00,,,0.00,JAVA,2013-01-09 11:07:00,
2013-01-09 06:12:00,69.7,68.0,30.26,NNW,337,0.0,0.1,94,0.00,,,0.00,JAVA,2013-01-09 11:12:00,
2013-01-09 06:17:00,69.7,68.0,30.26,NNW,337,0.0,0.2,94,0.00,,,0.00,JAVA,2013-01-09 11:17:00,
2013-01-09 06:22:00,69.8,68.0,30.26,SE,135,0.1,0.4,94,0.00,,,0.00,JAVA,2013-01-09 11:22:00,
2013-01-09 06:28:00,69.9,68.0,30.27,ESE,112,2.4,4.8,94,0.00,,,0.00,JAVA,2013-01-09 11:28:00,
2013-01-09 06:34:00,70.5,68.0,30.27,SE,135,1.9,4.4,94,0.00,,,0.00,JAVA,2013-01-09 11:34:00,
2013-01-09 06:39:00,70.7,68.1,30.27,SE,135,0.8,2.3,94,0.00,,,0.00,JAVA,2013-01-09 11:39:00,
2013-01-09 06:44:00,70.8,68.3,30.27,East,90,0.4,1.5,94,0.00,,,0.00,JAVA,2013-01-09 11:44:00,
2013-01-09 06:49:00,70.8,68.4,30.27,SE,135,1.1,2.8,93,0.00,,,0.00,JAVA,2013-01-09 11:49:00,
2013-01-09 06:54:00,70.9,68.5,30.28,East,90,1.5,2.8,93,0.00,,,0.00,JAVA,2013-01-09 11:54:00,
2013-01-09 07:00:00,71.0,68.6,30.28,East,90,1.3,2.9,93,0.00,,,0.00,JAVA,2013-01-09 12:00:00,
2013-01-09 07:05:00,71.3,68.7,30.28,ESE,112,1.8,3.2,92,0.00,,,0.00,JAVA,2013-01-09 12:05:00,
2013-01-09 07:10:00,71.3,68.8,30.28,East,90,1.1,2.7,92,0.00,,,0.00,JAVA,2013-01-09 12:10:00,
2013-01-09 07:15:00,71.4,68.9,30.28,ESE,112,2.1,4.0,92,0.00,,,0.00,JAVA,2013-01-09 12:15:00,
2013-01-09 07:20:00,71.5,68.9,30.28,East,90,2.0,3.7,92,0.00,,,0.00,JAVA,2013-01-09 12:20:00,
2013-01-09 07:25:00,71.5,68.9,30.29,East,90,1.8,3.0,91,0.00,,,0.00,JAVA,2013-01-09 12:25:00,
2013-01-09 07:31:00,71.4,68.9,30.29,East,90,1.4,2.1,91,0.00,,,0.00,JAVA,2013-01-09 12:31:00,
2013-01-09 07:36:00,71.4,68.9,30.29,East,90,2.0,3.4,91,0.00,,,0.00,JAVA,2013-01-09 12:36:00,
2013-01-09 07:41:00,71.5,68.9,30.29,ESE,112,2.2,3.6,92,0.00,,,0.00,JAVA,2013-01-09 12:41:00,
2013-01-09 07:46:00,71.5,68.9,30.30,East,90,2.0,3.1,92,0.00,,,0.00,JAVA,2013-01-09 12:46:00,
2013-01-09 07:51:00,71.5,68.9,30.29,SE,135,1.9,2.3,92,0.00,,,0.00,JAVA,2013-01-09 12:51:00,
2013-01-09 07:56:00,71.6,68.9,30.30,SE,135,1.5,2.8,92,0.00,,,0.00,JAVA,2013-01-09 12:56:00,
2013-01-09 08:01:00,71.6,69.0,30.30,ENE,67,1.6,2.5,92,0.00,,,0.00,JAVA,2013-01-09 13:01:00,
2013-01-09 08:06:00,71.8,69.1,30.30,ESE,112,1.9,3.0,93,0.00,,,0.00,JAVA,2013-01-09 13:06:00,
2013-01-09 08:12:00,71.8,69.2,30.31,SE,135,1.9,3.4,93,0.00,,,0.00,JAVA,2013-01-09 13:12:00,
2013-01-09 08:17:00,71.9,69.3,30.31,East,90,1.9,3.8,93,0.00,,,0.00,JAVA,2013-01-09 13:17:00,
2013-01-09 08:22:00,71.9,69.4,30.31,East,90,2.3,3.8,93,0.00,,,0.00,JAVA,2013-01-09 13:22:00,
2013-01-09 08:27:00,72.1,69.5,30.31,ESE,112,3.1,4.6,94,0.00,,,0.00,JAVA,2013-01-09 13:27:00,
2013-01-09 08:32:00,72.2,69.7,30.31,East,90,2.6,3.9,94,0.00,,,0.00,JAVA,2013-01-09 13:32:00,
2013-01-09 08:37:00,72.2,69.8,30.32,ESE,112,2.1,2.8,94,0.00,,,0.00,JAVA,2013-01-09 13:37:00,
2013-01-09 08:43:00,72.3,69.9,30.32,ESE,112,2.4,3.8,94,0.00,,,0.00,JAVA,2013-01-09 13:43:00,
2013-01-09 08:48:00,72.4,70.1,30.32,ENE,67,2.0,4.9,93,0.00,,,0.00,JAVA,2013-01-09 13:48:00,
2013-01-09 08:53:00,72.5,70.2,30.32,SSE,157,2.3,3.9,93,0.00,,,0.00,JAVA,2013-01-09 13:53:00,
2013-01-09 08:59:00,72.6,70.3,30.32,East,90,2.4,4.9,93,0.00,,,0.00,JAVA,2013-01-09 13:59:00,
2013-01-09 09:04:00,72.6,70.3,30.32,ESE,112,2.3,3.7,93,0.00,,,0.00,JAVA,2013-01-09 14:04:00,
2013-01-09 09:09:00,72.7,70.4,30.33,ESE,112,3.4,4.4,93,0.00,,,0.00,JAVA,2013-01-09 14:09:00,
2013-01-09 09:14:00,72.8,70.4,30.33,ESE,112,2.8,4.0,93,0.00,,,0.00,JAVA,2013-01-09 14:14:00,
2013-01-09 09:19:00,72.9,70.5,30.33,East,90,4.0,6.4,92,0.00,,,0.00,JAVA,2013-01-09 14:19:00,
2013-01-09 09:24:00,73.1,70.6,30.33,NE,45,3.6,5.6,92,0.00,,,0.00,JAVA,2013-01-09 14:24:00,
2013-01-09 09:29:00,73.2,70.6,30.34,East,90,3.6,5.5,92,0.00,,,0.00,JAVA,2013-01-09 14:29:00,
2013-01-09 09:34:00,73.3,70.7,30.33,SSE,157,3.5,5.0,92,0.00,,,0.00,JAVA,2013-01-09 14:34:00,
2013-01-09 09:40:00,73.3,70.7,30.34,East,90,3.3,5.5,91,0.00,,,0.00,JAVA,2013-01-09 14:40:00,
2013-01-09 09:45:00,73.5,70.7,30.33,ENE,67,3.7,6.7,91,0.00,,,0.00,JAVA,2013-01-09 14:45:00,
2013-01-09 09:50:00,73.5,70.7,30.33,SSE,157,3.8,5.4,91,0.00,,,0.00,JAVA,2013-01-09 14:50:00,
2013-01-09 09:55:00,73.9,70.8,30.33,ESE,112,4.0,5.5,91,0.00,,,0.00,JAVA,2013-01-09 14:55:00,
2013-01-09 10:00:00,74.1,70.8,30.34,ESE,112,4.4,6.4,90,0.00,,,0.00,JAVA,2013-01-09 15:00:00,
2013-01-09 10:05:00,74.6,70.9,30.33,ESE,112,5.0,7.7,90,0.00,,,0.00,JAVA,2013-01-09 15:05:00,
2013-01-09 10:11:00,75.1,71.0,30.33,ESE,112,3.7,5.3,89,0.00,,,0.00,JAVA,2013-01-09 15:11:00,
2013-01-09 10:16:00,75.3,71.1,30.33,ENE,67,3.6,5.8,89,0.00,,,0.00,JAVA,2013-01-09 15:16:00,
2013-01-09 10:21:00,75.3,71.2,30.33,East,90,4.0,5.9,88,0.00,,,0.00,JAVA,2013-01-09 15:21:00,
2013-01-09 10:26:00,75.4,71.3,30.33,East,90,3.3,4.4,88,0.00,,,0.00,JAVA,2013-01-09 15:26:00,
2013-01-09 10:31:00,75.3,71.4,30.33,ESE,112,3.5,5.2,87,0.00,,,0.00,JAVA,2013-01-09 15:31:00,
2013-01-09 10:36:00,75.2,71.5,30.33,East,90,4.1,7.0,86,0.00,,,0.00,JAVA,2013-01-09 15:36:00,
2013-01-09 10:41:00,75.0,71.4,30.33,SE,135,4.1,6.6,86,0.00,,,0.00,JAVA,2013-01-09 15:41:00,
2013-01-09 10:46:00,75.2,71.3,30.33,East,90,3.3,5.6,86,0.00,,,0.00,JAVA,2013-01-09 15:46:00,
2013-01-09 10:51:00,75.4,71.2,30.33,SSE,157,4.4,7.7,85,0.00,,,0.00,JAVA,2013-01-09 15:51:00,
2013-01-09 10:56:00,75.7,71.1,30.33,WSW,247,4.8,7.4,85,0.00,,,0.00,JAVA,2013-01-09 15:56:00,
2013-01-09 11:01:00,75.9,71.0,30.32,SE,135,4.9,7.3,85,0.00,,,0.00,JAVA,2013-01-09 16:01:00,
2013-01-09 11:06:00,76.2,71.0,30.32,ESE,112,5.6,8.6,85,0.00,,,0.00,JAVA,2013-01-09 16:06:00,
2013-01-09 11:11:00,76.4,71.0,30.32,SE,135,5.5,7.4,85,0.00,,,0.00,JAVA,2013-01-09 16:11:00,
2013-01-09 11:16:00,76.6,71.0,30.32,ESE,112,5.2,7.5,84,0.00,,,0.00,JAVA,2013-01-09 16:16:00,
2013-01-09 11:22:00,76.7,71.1,30.32,SE,135,4.4,7.0,84,0.00,,,0.00,JAVA,2013-01-09 16:22:00,
2013-01-09 11:27:00,77.1,71.2,30.32,East,90,3.8,6.2,83,0.00,,,0.00,JAVA,2013-01-09 16:27:00,
2013-01-09 11:32:00,77.6,71.4,30.32,ESE,112,4.0,6.3,83,0.00,,,0.00,JAVA,2013-01-09 16:32:00,
2013-01-09 11:37:00,77.3,71.5,30.32,ESE,112,4.6,6.8,82,0.00,,,0.00,JAVA,2013-01-09 16:37:00,
2013-01-09 11:42:00,77.1,71.5,30.32,ESE,112,4.3,6.8,82,0.00,,,0.00,JAVA,2013-01-09 16:42:00,
2013-01-09 11:47:00,77.2,71.5,30.32,ESE,112,3.0,7.7,81,0.00,,,0.00,JAVA,2013-01-09 16:47:00,
2013-01-09 11:52:00,77.7,71.5,30.31,East,90,3.2,4.5,81,0.00,,,0.00,JAVA,2013-01-09 16:52:00,
2013-01-09 11:57:00,77.8,71.5,30.31,East,90,3.2,5.1,80,0.00,,,0.00,JAVA,2013-01-09 16:57:00,
2013-01-09 12:02:00,78.2,71.5,30.31,ESE,112,2.9,4.0,80,0.00,,,0.00,JAVA,2013-01-09 17:02:00,
2013-01-09 12:07:00,78.0,71.5,30.31,ESE,112,3.8,5.8,79,0.00,,,0.00,JAVA,2013-01-09 17:07:00,
2013-01-09 12:12:00,78.0,71.4,30.30,ESE,112,3.3,4.6,79,0.00,,,0.00,JAVA,2013-01-09 17:12:00,
2013-01-09 12:17:00,77.6,71.3,30.30,SE,135,5.3,7.6,79,0.00,,,0.00,JAVA,2013-01-09 17:17:00,
2013-01-09 12:22:00,77.3,71.2,30.30,ESE,112,5.0,7.8,79,0.00,,,0.00,JAVA,2013-01-09 17:22:00,
2013-01-09 12:27:00,77.1,71.1,30.30,SE,135,5.4,7.7,79,0.00,,,0.00,JAVA,2013-01-09 17:27:00,
2013-01-09 12:33:00,76.9,71.0,30.30,East,90,4.9,7.8,79,0.00,,,0.00,JAVA,2013-01-09 17:33:00,
2013-01-09 12:38:00,76.9,70.8,30.30,East,90,4.4,6.0,79,0.00,,,0.00,JAVA,2013-01-09 17:38:00,
2013-01-09 12:43:00,77.1,70.6,30.30,SE,135,3.6,6.6,79,0.00,,,0.00,JAVA,2013-01-09 17:43:00,
2013-01-09 12:48:00,77.3,70.5,30.29,East,90,3.5,5.5,79,0.00,,,0.00,JAVA,2013-01-09 17:48:00,
2013-01-09 12:53:00,77.6,70.4,30.29,South,180,3.2,5.1,79,0.00,,,0.00,JAVA,2013-01-09 17:53:00,
2013-01-09 12:58:00,77.8,70.3,30.29,East,90,2.7,5.1,79,0.00,,,0.00,JAVA,2013-01-09 17:58:00,
2013-01-09 13:03:00,78.1,70.4,30.28,SE,135,3.3,5.9,79,0.00,,,0.00,JAVA,2013-01-09 18:03:00,
2013-01-09 13:08:00,77.8,70.5,30.28,East,90,4.2,6.2,79,0.00,,,0.00,JAVA,2013-01-09 18:08:00,
2013-01-09 13:13:00,77.4,70.5,30.28,SE,135,4.6,6.3,78,0.00,,,0.00,JAVA,2013-01-09 18:13:00,
2013-01-09 13:18:00,77.2,70.6,30.29,ESE,112,4.9,6.8,78,0.00,,,0.00,JAVA,2013-01-09 18:18:00,
2013-01-09 13:23:00,77.3,70.6,30.29,SE,135,3.8,5.5,78,0.00,,,0.00,JAVA,2013-01-09 18:23:00,
2013-01-09 13:28:00,77.6,70.6,30.29,ENE,67,4.0,6.7,78,0.00,,,0.00,JAVA,2013-01-09 18:28:00,
2013-01-09 13:33:00,77.8,70.6,30.28,ESE,112,4.2,5.6,78,0.00,,,0.00,JAVA,2013-01-09 18:33:00,
2013-01-09 13:39:00,77.7,70.6,30.29,ESE,112,4.1,6.2,78,0.00,,,0.00,JAVA,2013-01-09 18:39:00,
2013-01-09 13:41:00,77.8,70.6,30.29,East,90,2.9,5.8,78,0.00,,,0.00,JAVA,2013-01-09 18:41:00,
2013-01-09 13:42:00,77.9,70.6,30.29,East,90,2.7,3.8,78,0.00,,,0.00,JAVA,2013-01-09 18:42:00,
2013-01-09 13:43:00,77.8,70.5,30.29,ESE,112,2.9,3.8,78,0.00,,,0.00,JAVA,2013-01-09 18:43:00,
2013-01-09 13:44:00,77.8,70.5,30.29,East,90,3.5,6.5,78,0.00,,,0.00,JAVA,2013-01-09 18:44:00,
2013-01-09 13:45:00,77.8,70.5,30.29,SE,135,3.4,6.5,78,0.00,,,0.00,JAVA,2013-01-09 18:45:00,
2013-01-09 13:46:00,77.8,70.5,30.29,ESE,112,3.4,6.5,78,0.00,,,0.00,JAVA,2013-01-09 18:46:00,
2013-01-09 13:48:00,77.9,70.5,30.28,East,90,3.4,6.5,78,0.00,,,0.00,JAVA,2013-01-09 18:48:00,
2013-01-09 13:49:00,77.9,70.5,30.28,East,90,3.7,5.5,78,0.00,,,0.00,JAVA,2013-01-09 18:49:00,
2013-01-09 13:54:00,77.0,70.5,30.29,SE,135,5.9,7.7,79,0.00,,,0.00,JAVA,2013-01-09 18:54:00,
2013-01-09 13:56:00,76.9,70.5,30.29,South,180,5.4,7.6,79,0.00,,,0.00,JAVA,2013-01-09 18:56:00,
2013-01-09 14:01:00,77.3,70.4,30.29,ESE,112,2.3,3.9,79,0.00,,,0.00,JAVA,2013-01-09 19:01:00,
2013-01-09 14:06:00,77.7,70.5,30.28,East,90,2.7,5.6,79,0.00,,,0.00,JAVA,2013-01-09 19:06:00,
2013-01-09 14:12:00,77.4,70.5,30.28,ESE,112,2.8,6.0,79,0.00,,,0.00,JAVA,2013-01-09 19:12:00,
2013-01-09 14:17:00,77.3,70.5,30.28,SE,135,3.3,5.7,79,0.00,,,0.00,JAVA,2013-01-09 19:17:00,
2013-01-09 14:22:00,77.2,70.5,30.28,NNE,22,2.2,6.2,79,0.00,,,0.00,JAVA,2013-01-09 19:22:00,
2013-01-09 14:27:00,77.1,70.5,30.28,ENE,67,3.5,4.5,79,0.00,,,0.00,JAVA,2013-01-09 19:27:00,
2013-01-09 14:32:00,76.7,70.4,30.28,SSE,157,3.5,5.1,80,0.00,,,0.00,JAVA,2013-01-09 19:32:00,
2013-01-09 14:37:00,76.2,70.4,30.28,East,90,4.1,5.5,80,0.00,,,0.00,JAVA,2013-01-09 19:37:00,
2013-01-09 14:43:00,75.9,70.3,30.28,ESE,112,4.5,5.8,80,0.00,,,0.00,JAVA,2013-01-09 19:43:00,
2013-01-09 14:49:00,75.8,70.1,30.28,SE,135,3.9,5.2,81,0.00,,,0.00,JAVA,2013-01-09 19:49:00,
2013-01-09 14:54:00,75.9,70.0,30.28,East,90,3.1,4.2,81,0.00,,,0.00,JAVA,2013-01-09 19:54:00,
2013-01-09 14:59:00,76.0,70.0,30.28,SE,135,3.8,6.2,82,0.00,,,0.00,JAVA,2013-01-09 19:59:00,
2013-01-09 15:05:00,76.0,69.9,30.28,ESE,112,4.2,5.6,82,0.00,,,0.00,JAVA,2013-01-09 20:05:00,
2013-01-09 15:10:00,75.9,69.9,30.29,East,90,4.5,6.4,82,0.00,,,0.00,JAVA,2013-01-09 20:10:00,
2013-01-09 15:15:00,76.0,69.9,30.28,East,90,2.9,4.3,83,0.00,,,0.00,JAVA,2013-01-09 20:15:00,
2013-01-09 15:20:00,76.3,70.0,30.28,SE,135,2.8,4.0,83,0.00,,,0.00,JAVA,2013-01-09 20:20:00,
2013-01-09 15:25:00,76.4,70.2,30.28,SE,135,3.0,4.5,83,0.00,,,0.00,JAVA,2013-01-09 20:25:00,
2013-01-09 15:30:00,76.2,70.4,30.29,ENE,67,3.0,4.0,83,0.00,,,0.00,JAVA,2013-01-09 20:30:00,
2013-01-09 15:35:00,76.3,70.5,30.28,East,90,2.6,3.6,83,0.00,,,0.00,JAVA,2013-01-09 20:35:00,
2013-01-09 15:40:00,76.3,70.6,30.28,SE,135,2.4,3.9,83,0.00,,,0.00,JAVA,2013-01-09 20:40:00,
2013-01-09 15:45:00,76.1,70.7,30.29,East,90,3.5,4.9,82,0.00,,,0.00,JAVA,2013-01-09 20:45:00,
2013-01-09 15:50:00,76.0,70.7,30.29,ENE,67,3.4,5.0,82,0.00,,,0.00,JAVA,2013-01-09 20:50:00,
2013-01-09 15:55:00,75.9,70.7,30.29,East,90,3.0,4.4,82,0.00,,,0.00,JAVA,2013-01-09 20:55:00,
2013-01-09 16:01:00,75.9,70.6,30.29,ESE,112,3.1,4.0,82,0.00,,,0.00,JAVA,2013-01-09 21:01:00,
2013-01-09 16:06:00,75.5,70.5,30.29,East,90,3.5,4.3,82,0.00,,,0.00,JAVA,2013-01-09 21:06:00,
2013-01-09 16:11:00,75.5,70.4,30.29,East,90,2.4,3.4,82,0.00,,,0.00,JAVA,2013-01-09 21:11:00,
2013-01-09 16:16:00,75.4,70.3,30.29,ENE,67,2.7,3.9,82,0.00,,,0.00,JAVA,2013-01-09 21:16:00,
2013-01-09 16:21:00,75.4,70.2,30.29,ESE,112,2.9,4.5,82,0.00,,,0.00,JAVA,2013-01-09 21:21:00,
2013-01-09 16:26:00,75.4,70.1,30.28,SE,135,3.2,4.5,83,0.00,,,0.00,JAVA,2013-01-09 21:26:00,
2013-01-09 16:31:00,75.2,70.0,30.28,SE,135,4.1,5.7,83,0.00,,,0.00,JAVA,2013-01-09 21:31:00,
2013-01-09 16:37:00,74.9,69.9,30.29,East,90,4.2,5.4,83,0.00,,,0.00,JAVA,2013-01-09 21:37:00,
2013-01-09 16:42:00,74.6,69.8,30.29,ESE,112,4.2,5.3,83,0.00,,,0.00,JAVA,2013-01-09 21:42:00,
2013-01-09 16:47:00,74.4,69.7,30.29,ESE,112,3.6,5.6,84,0.00,,,0.00,JAVA,2013-01-09 21:47:00,
2013-01-09 16:52:00,74.2,69.6,30.30,East,90,3.4,5.2,84,0.00,,,0.00,JAVA,2013-01-09 21:52:00,
2013-01-09 16:57:00,74.1,69.6,30.29,SE,135,2.8,4.5,84,0.00,,,0.00,JAVA,2013-01-09 21:57:00,
2013-01-09 17:02:00,73.9,69.5,30.29,ESE,112,2.8,3.9,85,0.00,,,0.00,JAVA,2013-01-09 22:02:00,
2013-01-09 17:07:00,73.7,69.4,30.29,ESE,112,2.7,4.5,85,0.00,,,0.00,JAVA,2013-01-09 22:07:00,
2013-01-09 17:12:00,73.6,69.3,30.29,ESE,112,2.6,3.6,86,0.00,,,0.00,JAVA,2013-01-09 22:12:00,
2013-01-09 17:17:00,73.4,69.2,30.29,East,90,2.7,3.3,86,0.00,,,0.00,JAVA,2013-01-09 22:17:00,
2013-01-09 17:22:00,73.2,69.2,30.30,SE,135,3.2,4.5,87,0.00,,,0.00,JAVA,2013-01-09 22:22:00,
2013-01-09 17:27:00,73.1,69.1,30.30,East,90,3.0,4.3,87,0.00,,,0.00,JAVA,2013-01-09 22:27:00,
2013-01-09 17:32:00,72.9,69.1,30.30,ESE,112,3.0,4.1,88,0.00,,,0.00,JAVA,2013-01-09 22:32:00,
2013-01-09 17:37:00,72.8,69.1,30.30,ESE,112,3.2,4.7,88,0.00,,,0.00,JAVA,2013-01-09 22:37:00,
2013-01-09 17:43:00,72.7,69.1,30.30,SE,135,3.3,5.2,89,0.00,,,0.00,JAVA,2013-01-09 22:43:00,
2013-01-09 17:48:00,72.6,69.1,30.30,SE,135,2.8,4.2,89,0.00,,,0.00,JAVA,2013-01-09 22:48:00,
2013-01-09 17:53:00,72.5,69.2,30.29,East,90,3.4,4.7,89,0.00,,,0.00,JAVA,2013-01-09 22:53:00,
2013-01-09 17:58:00,72.5,69.2,30.30,SE,135,3.2,5.6,90,0.00,,,0.00,JAVA,2013-01-09 22:58:00,
2013-01-09 18:03:00,72.4,69.3,30.30,SE,135,3.4,4.6,90,0.00,,,0.00,JAVA,2013-01-09 23:03:00,
2013-01-09 18:08:00,72.4,69.3,30.30,SE,135,3.5,6.0,90,0.00,,,0.00,JAVA,2013-01-09 23:08:00,
2013-01-09 18:13:00,72.4,69.3,30.30,ESE,112,3.7,6.7,91,0.00,,,0.00,JAVA,2013-01-09 23:13:00,
2013-01-09 18:18:00,72.4,69.4,30.30,East,90,3.4,4.6,91,0.00,,,0.00,JAVA,2013-01-09 23:18:00,
2013-01-09 18:23:00,72.3,69.4,30.30,SSE,157,3.1,4.5,91,0.00,,,0.00,JAVA,2013-01-09 23:23:00,
2013-01-09 18:29:00,72.3,69.5,30.30,SE,135,3.1,4.9,91,0.00,,,0.00,JAVA,2013-01-09 23:29:00,
2013-01-09 18:34:00,72.2,69.5,30.30,SE,135,3.1,5.2,92,0.00,,,0.00,JAVA,2013-01-09 23:34:00,
2013-01-09 18:39:00,72.2,69.6,30.30,ESE,112,3.7,5.9,92,0.00,,,0.00,JAVA,2013-01-09 23:39:00,
2013-01-09 18:44:00,72.2,69.6,30.30,ESE,112,3.2,4.9,92,0.00,,,0.00,JAVA,2013-01-09 23:44:00,
2013-01-09 18:49:00,72.2,69.6,30.30,SSE,157,3.7,4.8,92,0.00,,,0.00,JAVA,2013-01-09 23:49:00,
2013-01-09 18:54:00,72.2,69.7,30.31,SE,135,3.7,5.6,92,0.00,,,0.00,JAVA,2013-01-09 23:54:00,
2013-01-09 18:59:00,72.1,69.7,30.31,ESE,112,3.0,4.3,92,0.00,,,0.00,JAVA,2013-01-09 23:59:00,
2013-01-09 19:04:00,72.1,69.7,30.30,ESE,112,3.0,4.7,92,0.00,,,0.00,JAVA,2013-01-10 00:04:00,
2013-01-09 19:09:00,72.1,69.8,30.31,ESE,112,3.2,4.3,93,0.00,,,0.00,JAVA,2013-01-10 00:09:00,
2013-01-09 19:14:00,72.1,69.8,30.32,SE,135,3.3,5.2,93,0.00,,,0.00,JAVA,2013-01-10 00:14:00,
2013-01-09 19:19:00,72.1,69.8,30.31,East,90,3.6,5.0,93,0.00,,,0.00,JAVA,2013-01-10 00:19:00,
2013-01-09 19:24:00,71.9,69.8,30.31,SE,135,3.0,4.8,93,0.00,,,0.00,JAVA,2013-01-10 00:24:00,
2013-01-09 19:29:00,71.9,69.8,30.32,East,90,2.5,3.2,93,0.00,,,0.00,JAVA,2013-01-10 00:29:00,
2013-01-09 19:34:00,71.9,69.8,30.32,ESE,112,3.1,5.7,93,0.00,,,0.00,JAVA,2013-01-10 00:34:00,
2013-01-09 19:40:00,71.9,69.8,30.32,East,90,2.8,4.5,93,0.00,,,0.00,JAVA,2013-01-10 00:40:00,
2013-01-09 19:45:00,71.8,69.8,30.32,East,90,2.8,4.1,93,0.00,,,0.00,JAVA,2013-01-10 00:45:00,
2013-01-09 19:50:00,71.9,69.8,30.32,East,90,3.5,5.0,93,0.00,,,0.00,JAVA,2013-01-10 00:50:00,
2013-01-09 19:55:00,71.8,69.8,30.33,ESE,112,3.0,5.3,93,0.00,,,0.00,JAVA,2013-01-10 00:55:00,
2013-01-09 20:00:00,71.9,69.8,30.33,ESE,112,2.6,3.7,93,0.00,,,0.00,JAVA,2013-01-10 01:00:00,
2013-01-09 20:05:00,71.8,69.8,30.32,SE,135,2.9,4.7,93,0.00,,,0.00,JAVA,2013-01-10 01:05:00,
2013-01-09 20:10:00,71.8,69.8,30.33,SE,135,3.2,5.3,93,0.00,,,0.00,JAVA,2013-01-10 01:10:00,
2013-01-09 20:15:00,71.7,69.8,30.32,East,90,2.9,3.9,93,0.00,,,0.00,JAVA,2013-01-10 01:15:00,
2013-01-09 20:21:00,71.7,69.8,30.33,SE,135,2.9,4.0,93,0.00,,,0.00,JAVA,2013-01-10 01:21:00,
2013-01-09 20:26:00,71.7,69.7,30.33,SE,135,2.7,4.7,93,0.00,,,0.00,JAVA,2013-01-10 01:26:00,
2013-01-09 20:31:00,71.7,69.7,30.33,East,90,2.9,4.3,93,0.00,,,0.00,JAVA,2013-01-10 01:31:00,
2013-01-09 20:36:00,71.7,69.7,30.32,ESE,112,2.9,4.2,93,0.00,,,0.00,JAVA,2013-01-10 01:36:00,
2013-01-09 20:41:00,71.6,69.7,30.33,ESE,112,3.0,4.9,93,0.00,,,0.00,JAVA,2013-01-10 01:41:00,
2013-01-09 20:47:00,71.6,69.7,30.32,ESE,112,2.9,4.0,93,0.00,,,0.00,JAVA,2013-01-10 01:47:00,
2013-01-09 20:52:00,71.6,69.7,30.33,NE,45,3.0,4.8,93,0.00,,,0.00,JAVA,2013-01-10 01:52:00,
2013-01-09 20:57:00,71.6,69.7,30.33,ESE,112,3.4,4.6,94,0.00,,,0.00,JAVA,2013-01-10 01:57:00,
2013-01-09 21:02:00,71.7,69.7,30.33,ESE,112,3.4,4.7,94,0.00,,,0.00,JAVA,2013-01-10 02:02:00,
2013-01-09 21:07:00,71.6,69.8,30.33,East,90,2.6,4.4,94,0.00,,,0.00,JAVA,2013-01-10 02:07:00,
2013-01-09 21:12:00,71.6,69.8,30.33,SE,135,2.8,4.8,94,0.00,,,0.00,JAVA,2013-01-10 02:12:00,
2013-01-09 21:17:00,71.6,69.8,30.33,ESE,112,2.3,4.2,94,0.00,,,0.00,JAVA,2013-01-10 02:17:00,
2013-01-09 21:22:00,71.5,69.8,30.33,East,90,2.6,4.1,94,0.00,,,0.00,JAVA,2013-01-10 02:22:00,
2013-01-09 21:27:00,71.6,69.8,30.34,East,90,2.5,3.8,94,0.00,,,0.00,JAVA,2013-01-10 02:27:00,
2013-01-09 21:32:00,71.6,69.9,30.33,ENE,67,2.4,3.7,95,0.00,,,0.00,JAVA,2013-01-10 02:32:00,
2013-01-09 21:37:00,71.5,69.9,30.34,ESE,112,1.7,3.2,94,0.00,,,0.00,JAVA,2013-01-10 02:37:00,
2013-01-09 21:43:00,71.5,69.9,30.34,East,90,2.1,2.8,94,0.00,,,0.00,JAVA,2013-01-10 02:43:00,
2013-01-09 21:48:00,71.5,69.9,30.34,SE,135,2.2,3.3,94,0.00,,,0.00,JAVA,2013-01-10 02:48:00,
2013-01-09 21:53:00,71.5,69.9,30.34,East,90,2.0,2.7,94,0.00,,,0.00,JAVA,2013-01-10 02:53:00,
2013-01-09 21:58:00,71.4,69.9,30.34,East,90,2.0,2.8,94,0.00,,,0.00,JAVA,2013-01-10 02:58:00,
2013-01-09 22:03:00,71.5,69.9,30.34,SE,135,2.3,3.6,95,0.00,,,0.00,JAVA,2013-01-10 03:03:00,
2013-01-09 22:08:00,71.4,69.9,30.34,SE,135,2.2,3.0,95,0.00,,,0.00,JAVA,2013-01-10 03:08:00,
2013-01-09 22:14:00,71.6,69.9,30.34,East,90,2.3,4.6,95,0.00,,,0.00,JAVA,2013-01-10 03:14:00,
2013-01-09 22:19:00,71.7,69.9,30.34,SE,135,3.0,4.0,95,0.00,,,0.00,JAVA,2013-01-10 03:19:00,
2013-01-09 22:24:00,71.8,69.9,30.34,SE,135,2.8,4.7,95,0.00,,,0.00,JAVA,2013-01-10 03:24:00,
2013-01-09 22:29:00,71.8,70.0,30.34,East,90,2.8,3.8,95,0.00,,,0.00,JAVA,2013-01-10 03:29:00,
2013-01-09 22:34:00,71.8,70.0,30.34,SE,135,2.3,3.5,95,0.00,,,0.00,JAVA,2013-01-10 03:34:00,
2013-01-09 22:39:00,71.8,70.1,30.34,NE,45,2.5,3.4,95,0.00,,,0.00,JAVA,2013-01-10 03:39:00,
2013-01-09 22:44:00,71.8,70.2,30.34,SSE,157,2.5,3.8,95,0.00,,,0.00,JAVA,2013-01-10 03:44:00,
2013-01-09 22:49:00,71.8,70.2,30.34,ESE,112,2.3,3.6,95,0.00,,,0.00,JAVA,2013-01-10 03:49:00,
2013-01-09 22:54:00,71.7,70.3,30.34,SE,135,2.3,3.2,95,0.00,,,0.00,JAVA,2013-01-10 03:54:00,
2013-01-09 22:59:00,71.8,70.3,30.34,SE,135,2.3,4.2,95,0.00,,,0.00,JAVA,2013-01-10 03:59:00,
2013-01-09 23:05:00,71.7,70.3,30.34,ESE,112,2.5,3.2,95,0.00,,,0.00,JAVA,2013-01-10 04:05:00,
2013-01-09 23:10:00,71.8,70.3,30.34,SE,135,2.8,3.7,95,0.00,,,0.00,JAVA,2013-01-10 04:10:00,
2013-01-09 23:15:00,71.7,70.3,30.33,SE,135,3.2,4.5,95,0.00,,,0.00,JAVA,2013-01-10 04:15:00,
2013-01-09 23:20:00,71.8,70.3,30.34,ENE,67,2.7,4.5,95,0.00,,,0.00,JAVA,2013-01-10 04:20:00,
2013-01-09 23:25:00,71.8,70.3,30.33,East,90,3.5,6.0,94,0.00,,,0.00,JAVA,2013-01-10 04:25:00,
2013-01-09 23:30:00,71.8,70.3,30.34,ESE,112,3.4,4.9,95,0.00,,,0.00,JAVA,2013-01-10 04:30:00,
2013-01-09 23:35:00,71.8,70.2,30.33,ESE,112,3.6,5.4,95,0.00,,,0.00,JAVA,2013-01-10 04:35:00,
2013-01-09 23:40:00,71.8,70.2,30.33,SE,135,3.7,5.4,95,0.00,,,0.00,JAVA,2013-01-10 04:40:00,
2013-01-09 23:45:00,71.8,70.2,30.34,SE,135,3.4,5.4,95,0.00,,,0.00,JAVA,2013-01-10 04:45:00,
2013-01-09 23:50:00,71.8,70.2,30.34,SE,135,3.2,5.0,95,0.00,,,0.00,JAVA,2013-01-10 04:50:00,
2013-01-09 23:55:00,71.8,70.2,30.34,ESE,112,3.4,4.4,94,0.00,,,0.00,JAVA,2013-01-10 04:55:00,